sensor_id;sensor_type;location;lat;lon;timestamp;pressure;altitude;pressure_sealevel;temperature;humidity
74552;BME280;63025;55.472;38.432;2023-02-08T00:01:07;102840.41;;;-5.70;69.74
74552;BME280;63025;55.472;38.432;2023-02-08T00:03:33;102842.94;;;-5.65;70.29
74552;BME280;63025;55.472;38.432;2023-02-08T00:05:59;102842.88;;;-5.62;70.36
74552;BME280;63025;55.472;38.432;2023-02-08T00:08:25;102848.00;;;-5.59;69.70
74552;BME280;63025;55.472;38.432;2023-02-08T00:10:51;102847.88;;;-5.53;70.07
74552;BME280;63025;55.472;38.432;2023-02-08T00:13:16;102847.88;;;-5.53;70.09
74552;BME280;63025;55.472;38.432;2023-02-08T00:15:43;102844.31;;;-5.50;69.74
74552;BME280;63025;55.472;38.432;2023-02-08T00:20:54;102835.59;;;-5.51;70.31
74552;BME280;63025;55.472;38.432;2023-02-08T00:23:22;102844.22;;;-5.47;69.88
74552;BME280;63025;55.472;38.432;2023-02-08T00:25:48;102841.66;;;-5.49;69.53
74552;BME280;63025;55.472;38.432;2023-02-08T00:28:16;102839.19;;;-5.55;69.42
74552;BME280;63025;55.472;38.432;2023-02-08T00:30:42;102839.25;;;-5.58;69.60
74552;BME280;63025;55.472;38.432;2023-02-08T00:33:26;102837.50;;;-5.58;70.20
74552;BME280;63025;55.472;38.432;2023-02-08T00:36:00;102838.53;;;-5.63;69.79
74552;BME280;63025;55.472;38.432;2023-02-08T00:38:26;102843.75;;;-5.63;69.63
74552;BME280;63025;55.472;38.432;2023-02-08T00:40:52;102845.38;;;-5.59;69.49
74552;BME280;63025;55.472;38.432;2023-02-08T00:43:18;102835.81;;;-5.60;69.50
74552;BME280;63025;55.472;38.432;2023-02-08T00:45:44;102839.28;;;-5.60;69.45
74552;BME280;63025;55.472;38.432;2023-02-08T00:48:09;102833.31;;;-5.65;69.83
74552;BME280;63025;55.472;38.432;2023-02-08T00:50:35;102840.25;;;-5.62;70.14
74552;BME280;63025;55.472;38.432;2023-02-08T00:53:02;102834.13;;;-5.61;70.10
74552;BME280;63025;55.472;38.432;2023-02-08T00:55:27;102835.81;;;-5.60;69.69
74552;BME280;63025;55.472;38.432;2023-02-08T00:57:53;102838.53;;;-5.63;69.86
74552;BME280;63025;55.472;38.432;2023-02-08T01:00:19;102825.31;;;-5.60;69.75
74552;BME280;63025;55.472;38.432;2023-02-08T01:02:45;102826.19;;;-5.60;70.28
74552;BME280;63025;55.472;38.432;2023-02-08T01:05:11;102819.25;;;-5.61;70.03
74552;BME280;63025;55.472;38.432;2023-02-08T01:07:38;102809.59;;;-5.60;69.43
74552;BME280;63025;55.472;38.432;2023-02-08T01:10:06;102814.81;;;-5.59;70.00
74552;BME280;63025;55.472;38.432;2023-02-08T01:12:48;102812.16;;;-5.57;69.78
74552;BME280;63025;55.472;38.432;2023-02-08T01:15:14;102808.66;;;-5.56;69.58
74552;BME280;63025;55.472;38.432;2023-02-08T01:17:40;102814.78;;;-5.57;69.81
74552;BME280;63025;55.472;38.432;2023-02-08T01:20:06;102812.22;;;-5.60;69.80
74552;BME280;63025;55.472;38.432;2023-02-08T01:22:31;102814.06;;;-5.62;69.62
74552;BME280;63025;55.472;38.432;2023-02-08T01:24:59;102813.22;;;-5.64;69.62
74552;BME280;63025;55.472;38.432;2023-02-08T01:27:25;102813.09;;;-5.60;69.57
74552;BME280;63025;55.472;38.432;2023-02-08T01:29:51;102813.94;;;-5.59;70.20
74552;BME280;63025;55.472;38.432;2023-02-08T01:32:17;102816.50;;;-5.56;69.80
74552;BME280;63025;55.472;38.432;2023-02-08T01:35:01;102825.16;;;-5.52;70.11
74552;BME280;63025;55.472;38.432;2023-02-08T01:37:27;102833.03;;;-5.52;69.69
74552;BME280;63025;55.472;38.432;2023-02-08T01:39:53;102816.41;;;-5.51;70.01
74552;BME280;63025;55.472;38.432;2023-02-08T01:42:20;102816.41;;;-5.51;69.76
74552;BME280;63025;55.472;38.432;2023-02-08T01:48:17;102817.31;;;-5.52;69.94
74552;BME280;63025;55.472;38.432;2023-02-08T01:53:58;102812.16;;;-5.57;69.47
74552;BME280;63025;55.472;38.432;2023-02-08T01:56:37;102810.53;;;-5.61;69.01
74552;BME280;63025;55.472;38.432;2023-02-08T01:59:09;102820.19;;;-5.63;68.97
74552;BME280;63025;55.472;38.432;2023-02-08T02:01:37;102817.59;;;-5.65;69.38
74552;BME280;63025;55.472;38.432;2023-02-08T02:04:04;102815.97;;;-5.70;69.02
74552;BME280;63025;55.472;38.432;2023-02-08T02:06:37;102813.50;;;-5.76;69.44
74552;BME280;63025;55.472;38.432;2023-02-08T02:09:17;102816.03;;;-5.72;69.81
74552;BME280;63025;55.472;38.432;2023-02-08T02:11:44;102813.34;;;-5.70;68.77
74552;BME280;63025;55.472;38.432;2023-02-08T02:14:10;102808.94;;;-5.68;69.12
74552;BME280;63025;55.472;38.432;2023-02-08T02:16:58;102805.38;;;-5.64;69.44
74552;BME280;63025;55.472;38.432;2023-02-08T02:28:09;102820.19;;;-5.63;69.10
74552;BME280;63025;55.472;38.432;2023-02-08T02:36:43;102803.56;;;-5.62;69.36
74552;BME280;63025;55.472;38.432;2023-02-08T02:39:08;102813.94;;;-5.59;69.15
74552;BME280;63025;55.472;38.432;2023-02-08T02:45:01;102810.38;;;-5.55;69.81
74552;BME280;63025;55.472;38.432;2023-02-08T02:47:53;102823.47;;;-5.55;69.23
74552;BME280;63025;55.472;38.432;2023-02-08T02:50:29;102825.13;;;-5.51;69.31
74552;BME280;63025;55.472;38.432;2023-02-08T02:52:59;102821.50;;;-5.47;68.95
74552;BME280;63025;55.472;38.432;2023-02-08T02:55:27;102818.84;;;-5.45;69.10
74552;BME280;63025;55.472;38.432;2023-02-08T02:57:55;102817.19;;;-5.49;69.08
74552;BME280;63025;55.472;38.432;2023-02-08T03:00:25;102818.97;;;-5.50;69.73
74552;BME280;63025;55.472;38.432;2023-02-08T03:02:51;102812.03;;;-5.51;70.03
74552;BME280;63025;55.472;38.432;2023-02-08T03:05:17;102813.66;;;-5.47;69.62
74552;BME280;63025;55.472;38.432;2023-02-08T03:08:00;102811.84;;;-5.45;69.29
74552;BME280;63025;55.472;38.432;2023-02-08T03:13:04;102816.91;;;-5.37;68.84
74552;BME280;63025;55.472;38.432;2023-02-08T03:15:59;102815.16;;;-5.38;69.17
74552;BME280;63025;55.472;38.432;2023-02-08T03:19:00;102819.56;;;-5.39;69.04
74552;BME280;63025;55.472;38.432;2023-02-08T03:21:57;102829.16;;;-5.39;68.93
74552;BME280;63025;55.472;38.432;2023-02-08T03:24:50;102822.13;;;-5.37;69.37
74552;BME280;63025;55.472;38.432;2023-02-08T03:28:07;102823.94;;;-5.39;69.27
74552;BME280;63025;55.472;38.432;2023-02-08T03:30:44;102824.03;;;-5.42;69.50
74552;BME280;63025;55.472;38.432;2023-02-08T03:33:36;102829.09;;;-5.36;69.18
74552;BME280;63025;55.472;38.432;2023-02-08T03:38:49;102822.97;;;-5.35;69.24
74552;BME280;63025;55.472;38.432;2023-02-08T03:41:19;102823.84;;;-5.36;69.68
74552;BME280;63025;55.472;38.432;2023-02-08T03:43:53;102812.75;;;-5.46;69.22
74552;BME280;63025;55.472;38.432;2023-02-08T03:46:27;102816.28;;;-5.47;68.64
74552;BME280;63025;55.472;38.432;2023-02-08T03:48:59;102807.56;;;-5.47;69.17
74552;BME280;63025;55.472;38.432;2023-02-08T03:51:45;102810.94;;;-5.42;68.49
74552;BME280;63025;55.472;38.432;2023-02-08T03:54:18;102799.44;;;-5.38;68.53
74552;BME280;63025;55.472;38.432;2023-02-08T04:02:07;102803.69;;;-5.33;69.19
74552;BME280;63025;55.472;38.432;2023-02-08T04:04:38;102800.16;;;-5.32;68.62
74552;BME280;63025;55.472;38.432;2023-02-08T04:07:05;102801.91;;;-5.31;69.10
74552;BME280;63025;55.472;38.432;2023-02-08T04:09:31;102805.31;;;-5.29;68.51
74552;BME280;63025;55.472;38.432;2023-02-08T04:11:57;102813.94;;;-5.24;69.24
74552;BME280;63025;55.472;38.432;2023-02-08T04:14:23;102814.84;;;-5.26;69.09
74552;BME280;63025;55.472;38.432;2023-02-08T04:16:49;102804.41;;;-5.28;68.60
74552;BME280;63025;55.472;38.432;2023-02-08T04:19:14;102792.06;;;-5.23;68.69
74552;BME280;63025;55.472;38.432;2023-02-08T04:24:24;102788.91;;;-5.35;68.71
74552;BME280;63025;55.472;38.432;2023-02-08T04:26:50;102784.53;;;-5.35;68.51
74552;BME280;63025;55.472;38.432;2023-02-08T04:29:17;102800.06;;;-5.29;68.79
74552;BME280;63025;55.472;38.432;2023-02-08T04:31:42;102799.19;;;-5.29;69.21
74552;BME280;63025;55.472;38.432;2023-02-08T04:34:08;102802.78;;;-5.32;69.24
74552;BME280;63025;55.472;38.432;2023-02-08T04:36:34;102808.91;;;-5.31;68.54
74552;BME280;63025;55.472;38.432;2023-02-08T04:39:00;102807.03;;;-5.28;69.10
74552;BME280;63025;55.472;38.432;2023-02-08T04:41:26;102797.44;;;-5.29;68.85
74552;BME280;63025;55.472;38.432;2023-02-08T04:43:51;102805.28;;;-5.27;68.49
74552;BME280;63025;55.472;38.432;2023-02-08T04:46:17;102799.34;;;-5.34;68.51
74552;BME280;63025;55.472;38.432;2023-02-08T04:48:42;102802.00;;;-5.35;68.69
74552;BME280;63025;55.472;38.432;2023-02-08T04:51:08;102798.47;;;-5.34;68.47
74552;BME280;63025;55.472;38.432;2023-02-08T04:53:34;102794.16;;;-5.37;68.20
74552;BME280;63025;55.472;38.432;2023-02-08T04:56:00;102789.94;;;-5.41;68.08
74552;BME280;63025;55.472;38.432;2023-02-08T04:58:26;102798.44;;;-5.33;68.20
74552;BME280;63025;55.472;38.432;2023-02-08T05:00:51;102782.75;;;-5.34;67.94
74552;BME280;63025;55.472;38.432;2023-02-08T05:03:17;102786.16;;;-5.31;68.36
74552;BME280;63025;55.472;38.432;2023-02-08T05:05:43;102783.47;;;-5.29;68.08
74552;BME280;63025;55.472;38.432;2023-02-08T05:08:09;102772.31;;;-5.36;68.44
74552;BME280;63025;55.472;38.432;2023-02-08T05:10:34;102773.84;;;-5.29;68.13
74552;BME280;63025;55.472;38.432;2023-02-08T05:13:00;102765.84;;;-5.23;68.25
74552;BME280;63025;55.472;38.432;2023-02-08T05:15:26;102772.81;;;-5.22;68.70
74552;BME280;63025;55.472;38.432;2023-02-08T05:17:52;102779.63;;;-5.16;68.20
74552;BME280;63025;55.472;38.432;2023-02-08T05:20:18;102776.16;;;-5.17;68.87
74552;BME280;63025;55.472;38.432;2023-02-08T05:22:43;102766.50;;;-5.14;69.04
74552;BME280;63025;55.472;38.432;2023-02-08T05:25:09;102765.56;;;-5.12;69.14
74552;BME280;63025;55.472;38.432;2023-02-08T05:27:35;102762.78;;;-5.07;69.03
74552;BME280;63025;55.472;38.432;2023-02-08T05:30:02;102771.41;;;-5.02;69.42
74552;BME280;63025;55.472;38.432;2023-02-08T05:32:30;102767.13;;;-5.06;68.97
74552;BME280;63025;55.472;38.432;2023-02-08T05:34:55;102769.00;;;-5.10;68.68
74552;BME280;63025;55.472;38.432;2023-02-08T05:37:21;102767.28;;;-5.11;69.46
74552;BME280;63025;55.472;38.432;2023-02-08T05:39:47;102770.75;;;-5.10;68.87
74552;BME280;63025;55.472;38.432;2023-02-08T05:42:12;102769.00;;;-5.10;69.63
74552;BME280;63025;55.472;38.432;2023-02-08T05:44:38;102762.75;;;-5.06;69.65
74552;BME280;63025;55.472;38.432;2023-02-08T05:47:04;102763.00;;;-5.15;68.63
74552;BME280;63025;55.472;38.432;2023-02-08T05:49:30;102777.72;;;-5.09;69.33
74552;BME280;63025;55.472;38.432;2023-02-08T05:51:55;102760.88;;;-5.01;69.26
74552;BME280;63025;55.472;38.432;2023-02-08T05:54:21;102772.00;;;-4.93;69.19
74552;BME280;63025;55.472;38.432;2023-02-08T05:56:47;102768.34;;;-4.87;68.59
74552;BME280;63025;55.472;38.432;2023-02-08T05:59:12;102757.81;;;-4.86;69.06
74552;BME280;63025;55.472;38.432;2023-02-08T06:01:38;102755.94;;;-4.81;68.26
74552;BME280;63025;55.472;38.432;2023-02-08T06:04:04;102768.00;;;-4.75;68.02
74552;BME280;63025;55.472;38.432;2023-02-08T06:06:30;102757.66;;;-4.79;67.84
74552;BME280;63025;55.472;38.432;2023-02-08T06:08:56;102764.38;;;-4.71;67.44
74552;BME280;63025;55.472;38.432;2023-02-08T06:14:24;102753.00;;;-4.70;67.60
74552;BME280;63025;55.472;38.432;2023-02-08T06:16:50;102747.69;;;-4.68;68.00
74552;BME280;63025;55.472;38.432;2023-02-08T06:19:16;102750.25;;;-4.67;67.32
74552;BME280;63025;55.472;38.432;2023-02-08T06:21:42;102756.47;;;-4.69;67.84
74552;BME280;63025;55.472;38.432;2023-02-08T06:24:08;102745.94;;;-4.68;67.52
74552;BME280;63025;55.472;38.432;2023-02-08T06:26:36;102749.28;;;-4.63;67.84
74552;BME280;63025;55.472;38.432;2023-02-08T06:29:02;102734.97;;;-4.53;67.80
74552;BME280;63025;55.472;38.432;2023-02-08T06:31:27;102743.56;;;-4.48;67.58
74552;BME280;63025;55.472;38.432;2023-02-08T06:33:53;102741.66;;;-4.43;67.82
74552;BME280;63025;55.472;38.432;2023-02-08T06:36:37;102734.88;;;-4.50;67.49
74552;BME280;63025;55.472;38.432;2023-02-08T06:39:03;102736.41;;;-4.43;67.51
74552;BME280;63025;55.472;38.432;2023-02-08T06:41:29;102730.38;;;-4.46;67.20
74552;BME280;63025;55.472;38.432;2023-02-08T06:46:38;102735.13;;;-4.29;67.77
74552;BME280;63025;55.472;38.432;2023-02-08T06:49:04;102741.88;;;-4.22;67.47
74552;BME280;63025;55.472;38.432;2023-02-08T06:51:30;102730.41;;;-4.18;67.01
74552;BME280;63025;55.472;38.432;2023-02-08T06:53:56;102730.09;;;-4.09;67.81
74552;BME280;63025;55.472;38.432;2023-02-08T06:56:21;102725.84;;;-4.13;66.90
74552;BME280;63025;55.472;38.432;2023-02-08T07:01:31;102727.47;;;-4.09;67.68
74552;BME280;63025;55.472;38.432;2023-02-08T07:03:57;102732.75;;;-4.11;67.16
74552;BME280;63025;55.472;38.432;2023-02-08T07:06:23;102729.16;;;-4.07;66.97
74552;BME280;63025;55.472;38.432;2023-02-08T07:08:48;102728.84;;;-3.97;67.56
74552;BME280;63025;55.472;38.432;2023-02-08T07:11:17;102723.84;;;-4.05;67.18
74552;BME280;63025;55.472;38.432;2023-02-08T07:13:48;102725.31;;;-3.96;67.51
74552;BME280;63025;55.472;38.432;2023-02-08T07:16:15;102719.78;;;-3.89;67.37
74552;BME280;63025;55.472;38.432;2023-02-08T07:18:40;102716.09;;;-3.83;67.14
74552;BME280;63025;55.472;38.432;2023-02-08T07:21:06;102717.81;;;-3.82;67.50
74552;BME280;63025;55.472;38.432;2023-02-08T07:26:16;102709.03;;;-3.81;67.38
74552;BME280;63025;55.472;38.432;2023-02-08T07:28:42;102705.44;;;-3.79;67.21
74552;BME280;63025;55.472;38.432;2023-02-08T07:31:10;102708.75;;;-3.74;67.09
74552;BME280;63025;55.472;38.432;2023-02-08T07:33:38;102708.72;;;-3.72;66.92
74552;BME280;63025;55.472;38.432;2023-02-08T07:36:04;102708.66;;;-3.71;67.20
74552;BME280;63025;55.472;38.432;2023-02-08T07:38:32;102693.75;;;-3.70;66.42
74552;BME280;63025;55.472;38.432;2023-02-08T07:41:03;102689.94;;;-3.61;66.25
74552;BME280;63025;55.472;38.432;2023-02-08T07:43:29;102691.47;;;-3.54;66.11
74552;BME280;63025;55.472;38.432;2023-02-08T07:46:04;102699.13;;;-3.48;66.66
74552;BME280;63025;55.472;38.432;2023-02-08T07:48:30;102694.56;;;-3.43;66.55
74552;BME280;63025;55.472;38.432;2023-02-08T07:50:55;102697.88;;;-3.38;66.27
74552;BME280;63025;55.472;38.432;2023-02-08T07:53:21;102694.25;;;-3.34;65.65
74552;BME280;63025;55.472;38.432;2023-02-08T07:55:47;102690.56;;;-3.30;65.54
74552;BME280;63025;55.472;38.432;2023-02-08T07:58:12;102688.84;;;-3.31;65.85
74552;BME280;63025;55.472;38.432;2023-02-08T08:00:39;102696.63;;;-3.28;65.76
74552;BME280;63025;55.472;38.432;2023-02-08T08:03:24;102688.00;;;-3.32;65.94
74552;BME280;63025;55.472;38.432;2023-02-08T08:05:50;102685.31;;;-3.30;65.49
74552;BME280;63025;55.472;38.432;2023-02-08T08:08:16;102687.75;;;-3.24;65.70
74552;BME280;63025;55.472;38.432;2023-02-08T08:10:42;102683.84;;;-3.14;65.57
74552;BME280;63025;55.472;38.432;2023-02-08T08:13:07;102678.66;;;-3.15;65.07
74552;BME280;63025;55.472;38.432;2023-02-08T08:15:33;102681.09;;;-3.11;64.53
74552;BME280;63025;55.472;38.432;2023-02-08T08:17:59;102679.16;;;-3.06;65.05
74552;BME280;63025;55.472;38.432;2023-02-08T08:20:26;102685.03;;;-2.99;65.17
74552;BME280;63025;55.472;38.432;2023-02-08T08:22:51;102682.81;;;-2.86;64.52
74552;BME280;63025;55.472;38.432;2023-02-08T08:25:17;102684.78;;;-2.91;64.51
74552;BME280;63025;55.472;38.432;2023-02-08T08:27:43;102670.91;;;-2.97;64.26
74552;BME280;63025;55.472;38.432;2023-02-08T08:30:11;102673.44;;;-2.93;64.35
74552;BME280;63025;55.472;38.432;2023-02-08T08:32:38;102673.97;;;-3.07;64.84
74552;BME280;63025;55.472;38.432;2023-02-08T08:35:05;102663.94;;;-2.98;64.79
74552;BME280;63025;55.472;38.432;2023-02-08T08:37:31;102666.81;;;-2.80;64.28
74552;BME280;63025;55.472;38.432;2023-02-08T08:39:57;102660.31;;;-2.72;64.38
74552;BME280;63025;55.472;38.432;2023-02-08T08:42:23;102666.09;;;-2.62;63.91
74552;BME280;63025;55.472;38.432;2023-02-08T08:44:49;102651.75;;;-2.55;64.13
74552;BME280;63025;55.472;38.432;2023-02-08T08:47:14;102638.22;;;-2.46;63.81
74552;BME280;63025;55.472;38.432;2023-02-08T08:49:58;102645.69;;;-2.35;63.65
74552;BME280;63025;55.472;38.432;2023-02-08T08:52:43;102642.06;;;-2.33;63.09
74552;BME280;63025;55.472;38.432;2023-02-08T08:55:08;102643.91;;;-2.35;63.65
74552;BME280;63025;55.472;38.432;2023-02-08T08:57:34;102637.72;;;-2.34;63.71
74552;BME280;63025;55.472;38.432;2023-02-08T09:00:18;102633.78;;;-2.24;63.43
74552;BME280;63025;55.472;38.432;2023-02-08T09:02:44;102623.31;;;-2.25;63.06
74552;BME280;63025;55.472;38.432;2023-02-08T09:05:10;102631.56;;;-2.12;63.11
74552;BME280;63025;55.472;38.432;2023-02-08T09:07:35;102624.25;;;-2.06;63.22
74552;BME280;63025;55.472;38.432;2023-02-08T09:10:01;102620.44;;;-1.99;62.90
74552;BME280;63025;55.472;38.432;2023-02-08T09:12:28;102618.13;;;-2.06;62.65
74552;BME280;63025;55.472;38.432;2023-02-08T09:14:54;102632.75;;;-2.19;62.85
74552;BME280;63025;55.472;38.432;2023-02-08T09:17:20;102631.09;;;-2.22;63.09
74552;BME280;63025;55.472;38.432;2023-02-08T09:19:45;102623.25;;;-2.24;62.90
74552;BME280;63025;55.472;38.432;2023-02-08T09:22:30;102631.50;;;-2.11;62.91
74552;BME280;63025;55.472;38.432;2023-02-08T09:24:56;102634.53;;;-2.20;63.04
74552;BME280;63025;55.472;38.432;2023-02-08T09:27:21;102628.00;;;-2.32;63.25
74552;BME280;63025;55.472;38.432;2023-02-08T09:29:47;102623.13;;;-2.20;62.79
74552;BME280;63025;55.472;38.432;2023-02-08T09:32:13;102618.41;;;-2.12;63.30
74552;BME280;63025;55.472;38.432;2023-02-08T09:34:39;102620.50;;;-2.20;63.33
74552;BME280;63025;55.472;38.432;2023-02-08T09:37:04;102609.56;;;-2.32;63.55
74552;BME280;63025;55.472;38.432;2023-02-08T09:39:31;102598.63;;;-2.23;63.31
74552;BME280;63025;55.472;38.432;2023-02-08T09:50:20;102606.41;;;-1.99;62.89
74552;BME280;63025;55.472;38.432;2023-02-08T09:53:15;102588.97;;;-2.02;62.77
74552;BME280;63025;55.472;38.432;2023-02-08T09:55:45;102589.69;;;-1.98;62.56
74552;BME280;63025;55.472;38.432;2023-02-08T09:58:18;102589.47;;;-1.94;62.65
74552;BME280;63025;55.472;38.432;2023-02-08T10:00:47;102579.16;;;-1.98;62.59
74552;BME280;63025;55.472;38.432;2023-02-08T10:08:38;102572.41;;;-2.05;63.38
74552;BME280;63025;55.472;38.432;2023-02-08T10:17:37;102567.41;;;-1.91;63.61
74552;BME280;63025;55.472;38.432;2023-02-08T10:31:05;102540.09;;;-1.70;63.00
74552;BME280;63025;55.472;38.432;2023-02-08T10:33:45;102541.53;;;-1.63;63.00
74552;BME280;63025;55.472;38.432;2023-02-08T10:36:17;102536.75;;;-1.73;63.28
74552;BME280;63025;55.472;38.432;2023-02-08T10:38:44;102532.31;;;-1.73;63.40
74552;BME280;63025;55.472;38.432;2023-02-08T10:41:35;102529.25;;;-1.64;62.95
74552;BME280;63025;55.472;38.432;2023-02-08T10:52:27;102518.59;;;-1.61;63.68
74552;BME280;63025;55.472;38.432;2023-02-08T10:54:54;102506.03;;;-1.56;63.56
74552;BME280;63025;55.472;38.432;2023-02-08T10:57:28;102508.47;;;-1.51;63.55
74552;BME280;63025;55.472;38.432;2023-02-08T10:59:57;102507.47;;;-1.49;63.32
74552;BME280;63025;55.472;38.432;2023-02-08T11:02:27;102496.88;;;-1.47;63.49
74552;BME280;63025;55.472;38.432;2023-02-08T11:04:59;102495.84;;;-1.44;63.42
74552;BME280;63025;55.472;38.432;2023-02-08T11:07:44;102486.16;;;-1.44;63.10
74552;BME280;63025;55.472;38.432;2023-02-08T11:13:00;102492.50;;;-1.29;63.40
74552;BME280;63025;55.472;38.432;2023-02-08T11:15:47;102483.22;;;-1.19;62.85
74552;BME280;63025;55.472;38.432;2023-02-08T11:18:30;102485.47;;;-1.12;62.85
74552;BME280;63025;55.472;38.432;2023-02-08T11:21:03;102486.19;;;-1.08;62.67
74552;BME280;63025;55.472;38.432;2023-02-08T11:23:32;102474.78;;;-1.08;62.59
74552;BME280;63025;55.472;38.432;2023-02-08T11:28:40;102494.09;;;-1.08;62.57
74552;BME280;63025;55.472;38.432;2023-02-08T11:31:17;102487.31;;;-1.14;62.41
74552;BME280;63025;55.472;38.432;2023-02-08T11:34:02;102497.53;;;-1.06;62.44
74552;BME280;63025;55.472;38.432;2023-02-08T11:36:30;102481.53;;;-1.03;62.56
74552;BME280;63025;55.472;38.432;2023-02-08T11:38:59;102487.59;;;-1.01;62.57
74552;BME280;63025;55.472;38.432;2023-02-08T11:41:26;102478.88;;;-0.84;62.32
74552;BME280;63025;55.472;38.432;2023-02-08T11:43:57;102473.47;;;-0.83;61.95
74552;BME280;63025;55.472;38.432;2023-02-08T11:46:43;102472.66;;;-0.83;61.60
74552;BME280;63025;55.472;38.432;2023-02-08T11:49:37;102468.97;;;-0.81;61.69
74552;BME280;63025;55.472;38.432;2023-02-08T11:52:05;102469.31;;;-0.87;61.60
74552;BME280;63025;55.472;38.432;2023-02-08T11:54:40;102468.13;;;-0.98;61.89
74552;BME280;63025;55.472;38.432;2023-02-08T11:57:16;102461.91;;;-0.97;62.34
74552;BME280;63025;55.472;38.432;2023-02-08T11:59:48;102453.59;;;-0.90;62.00
74552;BME280;63025;55.472;38.432;2023-02-08T12:02:50;102464.63;;;-0.99;62.02
74552;BME280;63025;55.472;38.432;2023-02-08T12:05:18;102447.09;;;-1.00;61.87
74552;BME280;63025;55.472;38.432;2023-02-08T12:18:56;102428.28;;;-0.59;61.94
74552;BME280;63025;55.472;38.432;2023-02-08T12:21:29;102421.06;;;-0.56;61.14
74552;BME280;63025;55.472;38.432;2023-02-08T12:32:44;102404.38;;;-0.56;60.90
74552;BME280;63025;55.472;38.432;2023-02-08T12:35:34;102396.78;;;-0.62;60.99
74552;BME280;63025;55.472;38.432;2023-02-08T12:41:30;102403.38;;;-0.71;61.45
74552;BME280;63025;55.472;38.432;2023-02-08T12:50:04;102398.03;;;-0.87;61.73
74552;BME280;63025;55.472;38.432;2023-02-08T12:52:40;102389.56;;;-0.93;62.13
74552;BME280;63025;55.472;38.432;2023-02-08T12:58:29;102382.66;;;-0.79;61.51
74552;BME280;63025;55.472;38.432;2023-02-08T13:01:00;102388.41;;;-0.88;61.57
74552;BME280;63025;55.472;38.432;2023-02-08T13:06:25;102381.09;;;-0.83;61.98
74552;BME280;63025;55.472;38.432;2023-02-08T13:08:57;102387.63;;;-0.90;61.50
74552;BME280;63025;55.472;38.432;2023-02-08T13:11:36;102379.00;;;-0.93;62.06
74552;BME280;63025;55.472;38.432;2023-02-08T13:14:34;102384.84;;;-1.04;62.12
74552;BME280;63025;55.472;38.432;2023-02-08T13:17:13;102377.28;;;-1.12;62.56
74552;BME280;63025;55.472;38.432;2023-02-08T13:20:02;102382.81;;;-1.16;62.72
74552;BME280;63025;55.472;38.432;2023-02-08T13:22:33;102376.84;;;-1.20;62.62
74552;BME280;63025;55.472;38.432;2023-02-08T13:25:00;102373.09;;;-1.33;62.57
74552;BME280;63025;55.472;38.432;2023-02-08T13:27:28;102361.06;;;-1.38;63.20
74552;BME280;63025;55.472;38.432;2023-02-08T13:29:54;102358.56;;;-1.41;63.38
74552;BME280;63025;55.472;38.432;2023-02-08T13:32:26;102349.34;;;-1.50;63.34
74552;BME280;63025;55.472;38.432;2023-02-08T13:35:06;102351.25;;;-1.54;63.49
74552;BME280;63025;55.472;38.432;2023-02-08T13:37:37;102341.75;;;-1.56;63.73
74552;BME280;63025;55.472;38.432;2023-02-08T13:40:06;102353.72;;;-1.68;63.62
74552;BME280;63025;55.472;38.432;2023-02-08T13:42:46;102350.44;;;-1.73;64.27
74552;BME280;63025;55.472;38.432;2023-02-08T13:45:37;102352.47;;;-1.78;64.99
74552;BME280;63025;55.472;38.432;2023-02-08T13:48:10;102352.59;;;-1.81;64.59
74552;BME280;63025;55.472;38.432;2023-02-08T13:53:05;102353.06;;;-1.90;64.84
74552;BME280;63025;55.472;38.432;2023-02-08T13:58:24;102340.94;;;-1.94;65.19
74552;BME280;63025;55.472;38.432;2023-02-08T14:03:23;102344.88;;;-2.03;65.48
74552;BME280;63025;55.472;38.432;2023-02-08T14:06:13;102343.22;;;-2.05;65.83
74552;BME280;63025;55.472;38.432;2023-02-08T14:09:18;102350.63;;;-2.13;65.70
74552;BME280;63025;55.472;38.432;2023-02-08T14:11:48;102337.59;;;-2.16;65.89
74552;BME280;63025;55.472;38.432;2023-02-08T14:14:16;102337.47;;;-2.13;65.88
74552;BME280;63025;55.472;38.432;2023-02-08T14:16:44;102336.84;;;-2.18;66.02
74552;BME280;63025;55.472;38.432;2023-02-08T14:24:37;102331.03;;;-2.27;66.28
74552;BME280;63025;55.472;38.432;2023-02-08T14:27:20;102330.28;;;-2.29;66.32
74552;BME280;63025;55.472;38.432;2023-02-08T14:32:44;102327.28;;;-2.40;66.59
74552;BME280;63025;55.472;38.432;2023-02-08T14:45:47;102326.75;;;-2.67;67.18
74552;BME280;63025;55.472;38.432;2023-02-08T14:48:26;102331.22;;;-2.69;68.06
74552;BME280;63025;55.472;38.432;2023-02-08T14:59:32;102333.28;;;-2.75;68.34
74552;BME280;63025;55.472;38.432;2023-02-08T15:02:01;102326.97;;;-2.71;67.91
74552;BME280;63025;55.472;38.432;2023-02-08T15:04:28;102335.63;;;-2.69;68.50
74552;BME280;63025;55.472;38.432;2023-02-08T15:09:26;102337.34;;;-2.68;68.02
74552;BME280;63025;55.472;38.432;2023-02-08T15:12:01;102323.41;;;-2.70;68.29
74552;BME280;63025;55.472;38.432;2023-02-08T15:14:33;102329.59;;;-2.71;67.82
74552;BME280;63025;55.472;38.432;2023-02-08T15:17:00;102318.28;;;-2.73;68.52
74552;BME280;63025;55.472;38.432;2023-02-08T15:19:28;102332.41;;;-2.76;67.96
74552;BME280;63025;55.472;38.432;2023-02-08T15:22:36;102327.38;;;-2.80;68.66
74552;BME280;63025;55.472;38.432;2023-02-08T15:27:46;102337.16;;;-2.84;68.81
74552;BME280;63025;55.472;38.432;2023-02-08T15:30:23;102331.31;;;-2.90;68.53
74552;BME280;63025;55.472;38.432;2023-02-08T15:32:49;102330.59;;;-2.94;68.45
74552;BME280;63025;55.472;38.432;2023-02-08T15:35:17;102343.81;;;-2.96;68.67
74552;BME280;63025;55.472;38.432;2023-02-08T15:37:45;102343.03;;;-2.98;69.26
74552;BME280;63025;55.472;38.432;2023-02-08T15:40:24;102327.97;;;-2.94;69.37
74552;BME280;63025;55.472;38.432;2023-02-08T15:42:50;102330.59;;;-2.94;68.99
74552;BME280;63025;55.472;38.432;2023-02-08T15:45:24;102315.31;;;-2.86;68.69
74552;BME280;63025;55.472;38.432;2023-02-08T15:47:51;102319.66;;;-2.85;69.42
74552;BME280;63025;55.472;38.432;2023-02-08T15:50:20;102317.97;;;-2.86;69.54